Time;durP1;ratioP1;P1;durP2;ratioP2;P2;SDS_P1;SDS_P2;PMS_P1;PMS_P2;Temp;Humidity;BMP_temperature;BMP_pressure;BME280_temperature;BME280_humidity;BME280_pressure;Samples;Min_cycle;Max_cycle;Signal;HPM_P1;HPM_P2
2022/04/29 00:00:28;;;;;;;11.50;4.28;;;8.10;99.90;;;;;;5023928;28;20049;-90
2022/04/29 00:02:54;;;;;;;12.52;4.38;;;8.10;99.90;;;;;;4991187;28;20420;-90
2022/04/29 00:05:20;;;;;;;14.40;4.15;;;8.10;99.90;;;;;;5024014;28;20046;-90
2022/04/29 00:07:45;;;;;;;11.00;3.72;;;8.10;99.90;;;;;;4976398;28;20053;-89
2022/04/29 00:10:13;;;;;;;13.13;3.78;;;8.00;99.90;;;;;;4994727;28;20038;-90
2022/04/29 00:12:44;;;;;;;9.57;3.58;;;8.00;99.90;;;;;;4995267;28;20050;-90
2022/04/29 00:15:13;;;;;;;12.55;4.18;;;8.00;99.90;;;;;;4995051;28;20089;-90
2022/04/29 00:17:39;;;;;;;11.40;4.20;;;8.00;99.90;;;;;;5011390;28;20069;-90
2022/04/29 00:20:06;;;;;;;11.02;4.10;;;8.00;99.90;;;;;;4994923;28;20381;-90
2022/04/29 00:22:32;;;;;;;14.52;4.15;;;7.90;99.90;;;;;;4978868;28;20057;-91
2022/04/29 00:24:58;;;;;;;9.25;3.67;;;7.90;99.90;;;;;;5011677;28;20038;-90
2022/04/29 00:27:23;;;;;;;10.82;3.88;;;7.90;99.90;;;;;;4978922;28;20049;-89
2022/04/29 00:29:49;;;;;;;10.57;3.70;;;7.90;99.90;;;;;;4994472;28;20038;-90
2022/04/29 00:32:15;;;;;;;11.93;3.88;;;7.80;99.90;;;;;;4978581;28;20037;-89
2022/04/29 00:34:40;;;;;;;9.05;3.70;;;7.80;99.90;;;;;;4978836;28;20527;-90
2022/04/29 00:37:06;;;;;;;8.40;3.25;;;7.80;99.90;;;;;;4994638;28;20046;-89
2022/04/29 00:39:32;;;;;;;8.23;3.83;;;7.70;99.90;;;;;;5027483;28;20034;-89
2022/04/29 00:41:57;;;;;;;11.15;3.65;;;7.60;99.90;;;;;;4977880;28;20404;-89
2022/04/29 00:44:23;;;;;;;8.32;3.50;;;7.60;99.90;;;;;;4978612;28;20039;-89
2022/04/29 00:46:50;;;;;;;11.43;3.95;;;7.50;99.90;;;;;;5015730;28;20050;-89
2022/04/29 00:49:17;;;;;;;11.65;4.60;;;7.40;99.90;;;;;;5003274;28;20043;-90
2022/04/29 00:51:49;;;;;;;11.43;4.07;;;7.40;99.90;;;;;;5019527;28;20073;-89
2022/04/29 00:54:24;;;;;;;13.80;3.85;;;7.30;99.90;;;;;;5003375;28;20045;-90
2022/04/29 00:56:52;;;;;;;11.43;4.40;;;7.30;99.90;;;;;;5019686;28;20030;-89
2022/04/29 00:59:40;;;;;;;11.18;4.18;;;7.20;99.90;;;;;;5019505;28;20034;-90
2022/04/29 01:02:08;;;;;;;14.55;4.18;;;7.20;99.90;;;;;;5019453;28;20057;-90
2022/04/29 01:04:55;;;;;;;10.98;3.63;;;7.10;99.90;;;;;;5005344;28;20077;-90
2022/04/29 01:07:22;;;;;;;9.57;3.97;;;7.10;99.90;;;;;;4994954;28;20031;-90
2022/04/29 01:09:48;;;;;;;9.75;4.07;;;7.00;99.90;;;;;;4978945;28;20074;-90
2022/04/29 01:12:14;;;;;;;16.20;4.40;;;7.00;99.90;;;;;;4994426;28;20038;-90
2022/04/29 01:14:40;;;;;;;11.85;4.38;;;6.90;99.90;;;;;;4994379;28;20046;-89
2022/04/29 01:17:06;;;;;;;8.90;4.10;;;6.90;99.90;;;;;;4994386;28;20034;-90
2022/04/29 01:19:32;;;;;;;10.95;4.05;;;6.80;99.90;;;;;;4993573;28;20388;-90
2022/04/29 01:22:01;;;;;;;11.43;4.30;;;6.80;99.90;;;;;;4993773;28;20129;-90
2022/04/29 01:24:26;;;;;;;16.00;4.90;;;6.70;99.90;;;;;;4993949;28;20038;-90
2022/04/29 01:26:52;;;;;;;12.00;4.72;;;6.70;99.90;;;;;;4994130;28;20043;-90
2022/04/29 01:29:19;;;;;;;12.55;4.35;;;6.70;99.90;;;;;;4977799;28;20034;-90
2022/04/29 01:31:47;;;;;;;11.85;4.43;;;6.70;99.90;;;;;;4993716;28;20038;-89
2022/04/29 01:34:13;;;;;;;14.43;4.68;;;6.70;99.90;;;;;;4977832;28;20045;-90
2022/04/29 01:36:39;;;;;;;10.43;4.60;;;6.60;99.90;;;;;;4993795;28;20125;-90
2022/04/29 01:39:05;;;;;;;9.70;3.92;;;6.60;99.90;;;;;;4993931;28;20070;-90
2022/04/29 01:41:33;;;;;;;9.77;3.63;;;6.60;99.90;;;;;;4977244;28;20038;-90
2022/04/29 01:43:58;;;;;;;10.80;4.20;;;6.60;99.90;;;;;;4977289;28;20038;-90
2022/04/29 01:46:24;;;;;;;15.73;5.00;;;6.60;99.90;;;;;;4977291;28;20133;-89
2022/04/29 01:48:49;;;;;;;9.95;3.85;;;6.50;99.90;;;;;;4993754;28;20038;-90
2022/04/29 01:51:15;;;;;;;10.75;3.85;;;6.60;99.90;;;;;;4992963;28;20058;-89
2022/04/29 01:53:41;;;;;;;10.93;4.18;;;6.60;99.90;;;;;;4993403;28;20042;-89
2022/04/29 01:56:07;;;;;;;11.00;4.15;;;6.60;99.90;;;;;;4977349;28;20526;-89
2022/04/29 01:58:33;;;;;;;10.23;4.20;;;6.60;99.90;;;;;;4993420;28;20034;-89
2022/04/29 02:00:58;;;;;;;12.07;4.40;;;6.60;99.90;;;;;;4993043;28;20038;-90
2022/04/29 02:03:24;;;;;;;13.57;3.88;;;6.60;99.90;;;;;;4976942;28;20096;-89
2022/04/29 02:05:50;;;;;;;13.90;4.72;;;6.50;99.90;;;;;;4993096;28;20077;-89
2022/04/29 02:08:15;;;;;;;11.68;3.80;;;6.50;99.90;;;;;;4977101;28;20042;-89
2022/04/29 02:10:41;;;;;;;12.38;3.85;;;6.50;99.90;;;;;;4993085;28;20499;-90
2022/04/29 02:13:06;;;;;;;11.00;3.97;;;6.50;99.90;;;;;;4992799;28;20051;-89
2022/04/29 02:15:32;;;;;;;9.05;3.05;;;6.40;99.90;;;;;;4977013;28;20045;-89
2022/04/29 02:17:58;;;;;;;7.80;2.85;;;6.30;99.90;;;;;;4976971;28;20034;-90
2022/04/29 02:20:24;;;;;;;7.93;3.53;;;6.30;99.90;;;;;;4992799;28;20439;-89
2022/04/29 02:22:50;;;;;;;7.65;3.50;;;6.30;99.90;;;;;;4992816;28;20046;-89
2022/04/29 02:25:16;;;;;;;7.80;2.97;;;6.30;99.90;;;;;;4992947;28;20722;-89
2022/04/29 02:27:42;;;;;;;7.90;3.13;;;6.30;99.90;;;;;;4975931;28;20041;-90
2022/04/29 02:30:08;;;;;;;9.40;3.92;;;6.20;99.90;;;;;;4992156;28;20227;-90
2022/04/29 02:32:34;;;;;;;9.63;3.58;;;6.10;99.90;;;;;;4975417;28;20042;-90
2022/04/29 02:35:00;;;;;;;11.18;4.15;;;6.10;99.90;;;;;;4992627;28;20454;-90
2022/04/29 02:37:27;;;;;;;8.23;3.95;;;6.10;99.90;;;;;;4976219;28;20484;-90
2022/04/29 02:39:53;;;;;;;12.73;4.22;;;6.00;99.90;;;;;;4992394;28;20078;-90
2022/04/29 02:42:19;;;;;;;11.30;4.32;;;6.00;99.90;;;;;;4992134;28;20125;-90
2022/04/29 02:44:44;;;;;;;10.85;4.35;;;6.10;99.90;;;;;;4992470;28;20125;-90
2022/04/29 02:47:10;;;;;;;13.18;4.45;;;6.10;99.90;;;;;;4992327;28;20042;-90
2022/04/29 02:49:41;;;;;;;11.50;5.50;;;6.20;99.90;;;;;;4976002;28;20046;-90
2022/04/29 02:52:08;;;;;;;9.65;4.35;;;6.20;99.90;;;;;;4991921;28;20046;-90
2022/04/29 02:54:34;;;;;;;13.15;4.80;;;6.20;99.90;;;;;;4976505;28;20042;-90
2022/04/29 02:57:00;;;;;;;12.90;4.55;;;6.20;99.90;;;;;;4992612;28;20034;-90
2022/04/29 02:59:25;;;;;;;12.73;5.15;;;6.20;99.90;;;;;;4992132;28;20042;-90
2022/04/29 03:01:52;;;;;;;11.25;4.55;;;6.20;99.90;;;;;;4991877;28;20117;-90
2022/04/29 03:04:18;;;;;;;11.52;4.57;;;6.20;99.90;;;;;;4991816;28;20112;-90
2022/04/29 03:06:43;;;;;;;11.50;4.72;;;6.20;99.90;;;;;;4992180;28;20042;-89
2022/04/29 03:09:10;;;;;;;12.57;4.70;;;6.10;99.90;;;;;;4992032;28;20093;-88
2022/04/29 03:11:35;;;;;;;10.93;4.18;;;6.10;99.90;;;;;;4975453;28;20431;-90
2022/04/29 03:14:01;;;;;;;11.25;3.90;;;6.10;99.90;;;;;;4991805;28;20045;-90
2022/04/29 03:16:27;;;;;;;9.00;4.20;;;6.00;99.90;;;;;;4991770;28;20511;-90
2022/04/29 03:18:52;;;;;;;9.05;3.65;;;6.00;99.90;;;;;;4975817;28;20372;-90
2022/04/29 03:21:21;;;;;;;10.38;4.22;;;5.90;99.90;;;;;;4991511;28;20514;-90
2022/04/29 03:23:47;;;;;;;11.27;4.63;;;5.90;99.90;;;;;;4992135;28;20096;-90
2022/04/29 03:26:13;;;;;;;9.32;4.38;;;5.90;99.90;;;;;;4991802;28;20038;-90
2022/04/29 03:28:38;;;;;;;12.18;5.07;;;5.90;99.90;;;;;;4992066;28;20053;-90
2022/04/29 03:31:04;;;;;;;12.98;4.97;;;6.00;99.90;;;;;;4991445;28;20034;-91
2022/04/29 03:33:30;;;;;;;10.73;4.25;;;6.00;99.90;;;;;;4991528;28;20038;-90
2022/04/29 03:35:55;;;;;;;10.98;3.67;;;6.00;99.90;;;;;;4992110;28;20589;-90
2022/04/29 03:38:21;;;;;;;9.10;4.35;;;5.90;99.90;;;;;;4975471;28;20121;-91
2022/04/29 03:40:47;;;;;;;11.77;3.83;;;5.90;99.90;;;;;;4975120;28;20092;-90
2022/04/29 03:43:13;;;;;;;11.65;4.45;;;5.90;99.90;;;;;;4990978;28;20113;-90
2022/04/29 03:45:39;;;;;;;10.40;4.30;;;5.80;99.90;;;;;;4991612;28;20046;-89
2022/04/29 03:48:05;;;;;;;10.23;4.30;;;5.80;99.90;;;;;;4975246;28;20057;-90
2022/04/29 03:50:31;;;;;;;8.93;4.45;;;5.80;99.90;;;;;;4991652;28;20041;-90
2022/04/29 03:52:59;;;;;;;9.82;4.18;;;5.70;99.90;;;;;;4975311;28;20499;-90
2022/04/29 03:55:27;;;;;;;9.65;4.22;;;5.70;99.90;;;;;;4975261;28;20050;-90
2022/04/29 03:57:54;;;;;;;10.65;4.53;;;5.70;99.90;;;;;;4991435;28;20526;-90
2022/04/29 04:00:21;;;;;;;10.18;4.40;;;5.70;99.90;;;;;;4991151;28;20491;-90
2022/04/29 04:02:46;;;;;;;11.88;4.25;;;5.70;99.90;;;;;;4975173;28;20069;-90
2022/04/29 04:05:12;;;;;;;11.95;4.38;;;5.70;99.90;;;;;;4975525;28;20483;-90
2022/04/29 04:07:38;;;;;;;13.65;5.40;;;5.70;99.90;;;;;;4991324;28;20042;-90
2022/04/29 04:10:05;;;;;;;12.95;5.03;;;5.70;99.90;;;;;;4972713;28;20065;-90
2022/04/29 04:12:38;;;;;;;15.02;5.45;;;5.80;99.90;;;;;;4990509;28;20089;-90
2022/04/29 04:15:04;;;;;;;11.70;5.32;;;5.80;99.90;;;;;;4990952;28;20049;-89
2022/04/29 04:17:31;;;;;;;13.63;5.20;;;5.80;99.90;;;;;;4990995;28;20038;-89
2022/04/29 04:19:56;;;;;;;10.70;4.90;;;5.80;99.90;;;;;;4990865;28;20085;-89
2022/04/29 04:22:22;;;;;;;14.75;5.05;;;5.80;99.90;;;;;;4990974;28;20074;-89
2022/04/29 04:24:47;;;;;;;14.50;5.05;;;5.80;99.90;;;;;;4991263;28;20077;-89
2022/04/29 04:27:13;;;;;;;9.95;4.95;;;5.80;99.90;;;;;;4991221;28;20065;-90
2022/04/29 04:29:38;;;;;;;14.55;4.70;;;5.80;99.90;;;;;;4990786;28;20050;-90
2022/04/29 04:32:04;;;;;;;15.55;5.80;;;5.80;99.90;;;;;;4990736;28;20042;-90
2022/04/29 04:37:14;;;;;;;13.88;5.60;;;5.80;99.90;;;;;;4991414;28;20069;-89
2022/04/29 04:39:40;;;;;;;12.07;5.40;;;5.90;99.90;;;;;;4990594;28;20066;-89
2022/04/29 04:42:06;;;;;;;11.43;5.35;;;5.90;99.90;;;;;;4989712;28;20142;-89
2022/04/29 04:44:31;;;;;;;14.18;5.80;;;5.90;99.90;;;;;;4991289;28;20054;-89
2022/04/29 04:46:57;;;;;;;19.85;6.10;;;6.00;99.90;;;;;;4991060;28;20499;-89
2022/04/29 04:49:22;;;;;;;12.93;6.57;;;6.00;99.90;;;;;;4991019;28;20066;-90
2022/04/29 04:51:48;;;;;;;14.93;5.90;;;6.00;99.90;;;;;;4990965;28;20415;-89
2022/04/29 04:54:14;;;;;;;13.10;4.75;;;6.00;99.90;;;;;;4990606;28;20077;-89
2022/04/29 04:56:39;;;;;;;11.10;4.80;;;6.00;99.90;;;;;;4994082;28;20129;-89
2022/04/29 04:59:05;;;;;;;11.68;4.45;;;6.00;99.90;;;;;;4994113;28;20073;-89
2022/04/29 05:01:30;;;;;;;12.40;4.60;;;6.00;99.90;;;;;;4994118;28;20071;-89
2022/04/29 05:03:56;;;;;;;12.50;5.15;;;6.00;99.90;;;;;;4994027;28;20051;-90
2022/04/29 05:06:21;;;;;;;11.00;4.45;;;6.00;99.90;;;;;;4994284;28;20084;-89
2022/04/29 05:08:47;;;;;;;10.77;5.30;;;6.00;99.90;;;;;;4994502;28;20096;-90
2022/04/29 05:11:13;;;;;;;14.45;5.28;;;6.00;99.90;;;;;;4994005;28;20096;-89
2022/04/29 05:13:38;;;;;;;10.40;4.28;;;6.10;99.90;;;;;;4994090;28;20520;-89
2022/04/29 05:16:04;;;;;;;12.85;4.82;;;6.10;99.90;;;;;;4994327;28;20652;-89
2022/04/29 05:18:30;;;;;;;14.00;4.97;;;6.10;99.90;;;;;;4994156;28;20092;-88
2022/04/29 05:20:56;;;;;;;14.70;5.47;;;6.10;99.90;;;;;;4993665;28;20038;-89
2022/04/29 05:23:24;;;;;;;12.20;5.80;;;6.20;99.90;;;;;;4993831;28;20096;-89
2022/04/29 05:25:50;;;;;;;15.80;5.82;;;6.30;99.90;;;;;;4993812;28;20543;-89
2022/04/29 05:28:16;;;;;;;16.00;6.25;;;6.40;99.90;;;;;;4992899;28;20057;-90
2022/04/29 05:30:42;;;;;;;13.27;6.13;;;6.50;99.90;;;;;;4993493;28;20424;-91
2022/04/29 05:33:08;;;;;;;13.98;6.22;;;6.60;99.90;;;;;;4993643;28;20121;-90
2022/04/29 05:35:35;;;;;;;13.75;5.90;;;6.70;99.90;;;;;;4993669;28;20122;-90
2022/04/29 05:38:01;;;;;;;13.43;5.70;;;6.90;99.90;;;;;;4993828;28;20046;-89
2022/04/29 05:43:12;;;;;;;13.00;6.40;;;7.10;99.90;;;;;;4993288;28;20046;-91
2022/04/29 05:45:38;;;;;;;16.33;5.82;;;7.20;99.90;;;;;;4993802;28;20053;-90
2022/04/29 05:48:04;;;;;;;12.55;6.07;;;7.30;99.90;;;;;;4993717;28;20038;-90
2022/04/29 05:50:29;;;;;;;12.88;5.80;;;7.40;99.90;;;;;;4993006;28;20492;-89
2022/04/29 05:52:55;;;;;;;12.90;5.60;;;7.50;99.90;;;;;;4993263;28;20101;-89
2022/04/29 05:55:20;;;;;;;16.20;5.88;;;7.50;99.90;;;;;;4993468;28;20038;-90
2022/04/29 05:57:46;;;;;;;13.95;6.38;;;7.50;99.90;;;;;;4993334;28;20126;-90
2022/04/29 06:00:12;;;;;;;14.63;5.97;;;7.60;99.90;;;;;;4992937;28;20415;-90
2022/04/29 06:02:42;;;;;;;13.18;6.45;;;7.60;99.90;;;;;;4993017;28;20042;-90
2022/04/29 06:05:08;;;;;;;15.27;7.18;;;7.70;99.90;;;;;;4993019;28;20046;-90
2022/04/29 06:07:34;;;;;;;12.73;6.05;;;7.70;99.90;;;;;;4993219;28;20043;-89
2022/04/29 06:10:00;;;;;;;13.38;6.72;;;7.80;99.90;;;;;;4992830;28;20065;-90
2022/04/29 06:12:26;;;;;;;16.58;6.00;;;7.80;99.90;;;;;;4993049;28;20125;-90
2022/04/29 06:14:51;;;;;;;14.88;6.78;;;7.90;99.90;;;;;;4990971;28;20073;-89
2022/04/29 06:17:17;;;;;;;14.30;6.28;;;7.90;99.90;;;;;;4993186;28;20055;-90
2022/04/29 06:19:43;;;;;;;18.20;7.05;;;8.00;99.90;;;;;;4992947;28;20038;-90
2022/04/29 06:22:08;;;;;;;15.20;7.22;;;8.10;99.90;;;;;;4991769;28;20547;-90
2022/04/29 06:24:34;;;;;;;16.77;7.35;;;8.10;99.90;;;;;;4992458;28;20038;-89
2022/04/29 06:27:01;;;;;;;17.55;6.95;;;8.20;99.90;;;;;;4992897;28;20441;-90
2022/04/29 06:29:27;;;;;;;14.90;6.43;;;8.20;99.90;;;;;;4992834;28;20042;-90
2022/04/29 06:31:52;;;;;;;14.73;6.82;;;8.30;99.90;;;;;;4992651;28;20045;-90
2022/04/29 06:34:18;;;;;;;14.65;6.60;;;8.30;99.90;;;;;;4992207;28;20503;-90
2022/04/29 06:36:43;;;;;;;13.60;6.85;;;8.40;99.90;;;;;;4992340;28;20045;-90
2022/04/29 06:39:09;;;;;;;16.90;6.75;;;8.40;99.90;;;;;;4992634;28;20042;-90
2022/04/29 06:41:36;;;;;;;15.60;6.65;;;8.50;99.90;;;;;;4975980;28;20106;-90
2022/04/29 06:44:02;;;;;;;11.70;5.65;;;8.60;99.90;;;;;;5024779;28;20046;-90
2022/04/29 06:46:28;;;;;;;16.77;5.75;;;8.60;99.90;;;;;;4992592;28;20045;-90
2022/04/29 06:48:56;;;;;;;15.73;6.38;;;8.70;99.90;;;;;;4992557;28;20038;-89
2022/04/29 06:51:23;;;;;;;13.55;6.55;;;8.70;99.90;;;;;;4991874;28;20132;-90
2022/04/29 06:53:49;;;;;;;13.32;6.45;;;8.80;99.90;;;;;;4975749;28;20047;-90
2022/04/29 06:56:14;;;;;;;18.63;7.38;;;8.80;99.90;;;;;;5025023;28;20034;-90
2022/04/29 06:58:41;;;;;;;15.20;7.47;;;8.90;99.90;;;;;;4992077;28;20097;-90
2022/04/29 07:01:07;;;;;;;15.95;6.95;;;8.90;99.90;;;;;;5009003;28;20038;-89
2022/04/29 07:03:32;;;;;;;13.48;6.70;;;9.00;99.90;;;;;;4985556;28;20038;-90
2022/04/29 07:06:00;;;;;;;14.55;7.28;;;9.10;99.90;;;;;;4993700;28;20044;-90
2022/04/29 07:08:28;;;;;;;13.00;7.00;;;9.10;99.90;;;;;;4995481;28;20049;-90
2022/04/29 07:10:55;;;;;;;15.25;6.93;;;9.20;99.90;;;;;;4995143;28;20042;-91
2022/04/29 07:13:20;;;;;;;16.45;7.05;;;9.20;99.90;;;;;;5026872;28;20035;-90
2022/04/29 07:15:48;;;;;;;13.68;7.30;;;9.30;99.90;;;;;;4992948;28;20030;-91
2022/04/29 07:18:14;;;;;;;13.95;6.13;;;9.30;99.90;;;;;;5024868;28;20424;-90
2022/04/29 07:20:40;;;;;;;16.35;6.07;;;9.40;99.90;;;;;;5008375;28;20092;-90
2022/04/29 07:23:06;;;;;;;15.68;6.63;;;9.40;99.90;;;;;;5024854;28;20435;-90
2022/04/29 07:25:31;;;;;;;12.68;6.45;;;9.50;99.90;;;;;;4978936;28;20038;-90
2022/04/29 07:27:57;;;;;;;14.50;5.30;;;9.50;99.90;;;;;;4995057;28;20041;-89
2022/04/29 07:30:23;;;;;;;9.13;3.67;;;9.60;99.90;;;;;;5011115;28;20042;-90
2022/04/29 07:32:48;;;;;;;10.27;3.53;;;9.60;99.90;;;;;;5010959;28;20049;-90
2022/04/29 07:43:27;;;;;;;11.38;5.07;;;9.80;99.90;;;;;;5000242;28;20054;-90
2022/04/29 07:45:53;;;;;;;11.43;4.47;;;9.80;99.90;;;;;;4991300;28;20069;-90
2022/04/29 07:48:19;;;;;;;12.20;4.43;;;9.90;99.90;;;;;;4991625;28;20050;-90
2022/04/29 07:50:45;;;;;;;10.35;3.92;;;9.90;99.90;;;;;;4991137;28;20042;-90
2022/04/29 07:53:10;;;;;;;11.60;4.57;;;10.00;99.90;;;;;;4974776;28;20047;-90
2022/04/29 07:55:36;;;;;;;11.60;4.10;;;10.10;99.90;;;;;;4991505;28;20046;-90
2022/04/29 07:58:03;;;;;;;11.77;4.40;;;10.10;99.90;;;;;;4975014;28;20419;-91
2022/04/29 08:00:32;;;;;;;13.15;5.72;;;10.30;99.90;;;;;;4990935;28;20038;-90
2022/04/29 08:03:01;;;;;;;14.02;6.03;;;10.40;99.90;;;;;;4991074;28;20516;-90
2022/04/29 08:05:28;;;;;;;13.95;5.88;;;10.50;99.90;;;;;;4990962;28;20104;-90
2022/04/29 08:07:55;;;;;;;9.30;5.15;;;10.60;99.90;;;;;;4991004;28;20096;-90
2022/04/29 08:10:22;;;;;;;11.57;5.78;;;10.70;99.90;;;;;;4990553;28;20139;-90
2022/04/29 08:12:47;;;;;;;13.70;6.35;;;10.70;99.90;;;;;;4991000;28;20053;-90
2022/04/29 08:15:13;;;;;;;13.98;5.63;;;10.80;99.90;;;;;;4990949;28;20042;-90
2022/04/29 08:17:39;;;;;;;11.98;4.78;;;10.80;99.90;;;;;;4991244;28;20038;-90
2022/04/29 08:20:08;;;;;;;12.77;5.57;;;10.90;99.90;;;;;;4990995;28;20053;-90
2022/04/29 08:22:34;;;;;;;11.38;5.78;;;11.10;99.90;;;;;;4990766;28;20042;-90
2022/04/29 08:25:00;;;;;;;12.80;5.57;;;11.20;99.90;;;;;;4974258;28;20529;-91
2022/04/29 08:27:25;;;;;;;13.23;5.97;;;11.30;99.90;;;;;;4991017;28;20061;-90
2022/04/29 08:29:51;;;;;;;12.73;5.75;;;11.40;99.90;;;;;;4993920;28;20046;-91
2022/04/29 08:32:18;;;;;;;10.98;5.55;;;11.50;99.90;;;;;;4978447;28;20042;-91
2022/04/29 08:34:43;;;;;;;12.05;5.55;;;11.60;99.90;;;;;;4994764;28;20194;-90
2022/04/29 08:37:09;;;;;;;12.20;5.07;;;11.70;99.90;;;;;;4978583;28;20694;-91
2022/04/29 08:39:35;;;;;;;10.52;4.95;;;11.80;99.90;;;;;;4994371;28;20046;-91
2022/04/29 08:42:02;;;;;;;9.80;4.35;;;11.80;99.90;;;;;;4978091;28;20074;-90
2022/04/29 08:44:31;;;;;;;10.25;4.60;;;11.80;99.90;;;;;;4978156;28;20530;-90
2022/04/29 08:46:57;;;;;;;11.93;5.28;;;11.90;99.90;;;;;;4978504;28;20093;-90
2022/04/29 08:49:25;;;;;;;11.63;5.32;;;12.00;99.90;;;;;;4994589;28;20097;-90
2022/04/29 08:51:51;;;;;;;12.02;5.15;;;12.00;99.90;;;;;;4977670;28;20541;-92
2022/04/29 08:59:51;;;;;;;10.02;5.25;;;12.40;99.90;;;;;;4994537;28;20050;-91
2022/04/29 09:02:17;;;;;;;11.18;4.65;;;12.50;99.90;;;;;;4977673;28;20511;-91
2022/04/29 09:04:43;;;;;;;10.10;4.90;;;12.70;99.90;;;;;;4993823;28;20050;-91
2022/04/29 09:07:09;;;;;;;12.48;4.97;;;12.80;99.90;;;;;;4994399;28;20041;-90
2022/04/29 09:09:35;;;;;;;10.98;4.72;;;13.10;99.90;;;;;;4977647;28;20042;-90
2022/04/29 09:12:16;;;;;;;9.77;4.65;;;13.20;99.50;;;;;;4999023;28;20038;-91
2022/04/29 09:14:42;;;;;;;10.82;4.65;;;13.30;97.70;;;;;;5026818;28;20141;-90
2022/04/29 09:17:29;;;;;;;9.70;4.05;;;13.30;97.20;;;;;;4994174;28;20559;-90
2022/04/29 09:19:54;;;;;;;9.25;4.72;;;13.30;96.20;;;;;;4993815;28;20084;-90
2022/04/29 09:22:20;;;;;;;9.20;4.53;;;13.20;96.40;;;;;;4993720;28;20042;-91
2022/04/29 09:25:00;;;;;;;10.77;6.00;;;13.20;96.60;;;;;;4993709;28;20130;-90
2022/04/29 09:27:25;;;;;;;10.13;4.65;;;13.30;96.40;;;;;;5026229;28;20570;-90
2022/04/29 09:29:57;;;;;;;10.63;4.78;;;13.30;96.60;;;;;;4993654;28;20042;-90
2022/04/29 09:32:23;;;;;;;9.45;4.50;;;13.30;96.10;;;;;;4975479;28;20125;-90
2022/04/29 09:34:53;;;;;;;9.98;4.90;;;13.30;96.30;;;;;;4993589;28;20130;-90
2022/04/29 09:37:21;;;;;;;11.30;5.43;;;13.40;96.40;;;;;;4976589;28;20034;-90
2022/04/29 09:39:54;;;;;;;9.95;4.60;;;13.40;96.20;;;;;;4976514;28;20034;-90
2022/04/29 09:42:19;;;;;;;;;;;13.50;96.60;;;;;;4977497;28;20481;-90
2022/04/29 09:44:45;;;;;;;11.13;4.90;;;13.60;96.30;;;;;;4993430;28;20375;-90
2022/04/29 09:47:17;;;;;;;13.88;5.10;;;13.70;96.10;;;;;;4993097;28;20542;-90
2022/04/29 09:49:58;;;;;;;11.50;4.45;;;13.80;96.30;;;;;;4985872;28;20047;-90
2022/04/29 09:52:30;;;;;;;10.25;4.55;;;13.90;94.80;;;;;;4973508;28;20078;-90
2022/04/29 09:55:14;;;;;;;8.90;4.32;;;14.00;94.80;;;;;;4957995;28;20065;-91
2022/04/29 09:57:52;;;;;;;11.02;4.10;;;14.10;94.20;;;;;;4957520;28;20035;-90
2022/04/29 10:00:18;;;;;;;9.40;3.53;;;14.20;93.00;;;;;;4974509;28;20047;-90
2022/04/29 10:02:46;;;;;;;9.88;3.65;;;14.40;92.80;;;;;;4974680;28;20047;-89
2022/04/29 10:05:12;;;;;;;11.07;4.38;;;14.50;92.60;;;;;;4973834;28;20043;-88
2022/04/29 10:07:40;;;;;;;10.38;3.97;;;14.70;91.40;;;;;;4973952;28;20499;-90
2022/04/29 10:10:07;;;;;;;8.88;3.50;;;14.80;91.50;;;;;;4973375;28;20105;-90
2022/04/29 10:12:33;;;;;;;9.40;3.60;;;14.90;90.60;;;;;;4956913;28;20038;-90
2022/04/29 10:15:05;;;;;;;8.65;3.75;;;14.90;89.00;;;;;;4973106;28;20035;-90
2022/04/29 10:23:11;;;;;;;10.15;3.28;;;15.00;84.70;;;;;;4973251;28;20042;-90
2022/04/29 10:25:42;;;;;;;9.95;3.47;;;14.90;83.70;;;;;;4972811;28;20080;-90
2022/04/29 10:28:08;;;;;;;11.85;3.40;;;14.90;82.00;;;;;;4956829;28;20051;-90
2022/04/29 10:30:37;;;;;;;9.32;3.80;;;14.90;82.90;;;;;;4972514;28;20034;-90
2022/04/29 10:33:11;;;;;;;11.15;3.80;;;14.90;81.90;;;;;;4956807;28;20517;-90
2022/04/29 10:35:39;;;;;;;9.10;3.90;;;14.90;82.00;;;;;;4956723;28;20057;-90
2022/04/29 10:38:13;;;;;;;8.05;3.17;;;14.90;82.10;;;;;;4972858;28;20057;-91
2022/04/29 10:40:39;;;;;;;10.18;3.20;;;14.90;81.20;;;;;;4972420;28;20042;-91
2022/04/29 10:43:09;;;;;;;9.23;3.33;;;14.90;83.50;;;;;;4972501;28;20050;-90
2022/04/29 10:45:36;;;;;;;9.77;3.67;;;15.00;83.70;;;;;;4956147;28;20517;-90
2022/04/29 10:48:30;;;;;;;8.45;3.20;;;15.10;84.50;;;;;;4972973;28;20050;-90
2022/04/29 10:50:56;;;;;;;9.65;3.30;;;15.20;84.10;;;;;;4956033;28;20047;-90
2022/04/29 10:53:35;;;;;;;9.73;2.90;;;15.20;82.90;;;;;;4971643;28;20054;-90
2022/04/29 10:56:32;;;;;;;8.95;3.00;;;15.30;82.70;;;;;;4956364;28;20035;-90
2022/04/29 10:59:03;;;;;;;8.63;3.00;;;15.30;81.30;;;;;;4972415;28;20483;-90
2022/04/29 11:01:34;;;;;;;9.25;3.28;;;15.40;81.90;;;;;;5010311;28;20053;-90
2022/04/29 11:04:06;;;;;;;7.53;2.90;;;15.40;80.20;;;;;;4995270;28;20050;-90
2022/04/29 11:06:51;;;;;;;9.85;3.15;;;15.40;77.70;;;;;;5011373;28;20522;-90
2022/04/29 11:09:50;;;;;;;8.38;2.78;;;15.40;78.70;;;;;;5011505;28;20042;-90
2022/04/29 11:12:34;;;;;;;7.72;2.85;;;15.40;77.30;;;;;;5011081;28;20038;-89
2022/04/29 11:15:18;;;;;;;8.98;3.00;;;15.40;77.50;;;;;;5011388;28;20041;-90
2022/04/29 11:17:44;;;;;;;9.23;3.10;;;15.40;78.90;;;;;;5011117;28;20073;-91
2022/04/29 11:20:18;;;;;;;10.52;4.60;;;15.40;79.00;;;;;;5010354;28;20037;-91
2022/04/29 11:25:57;;;;;;;11.23;3.30;;;15.60;80.70;;;;;;5010546;28;20053;-91
2022/04/29 11:28:24;;;;;;;9.57;3.30;;;15.60;77.80;;;;;;5010674;28;20045;-90
2022/04/29 11:30:59;;;;;;;10.10;4.05;;;15.60;76.80;;;;;;5010624;28;20077;-90
2022/04/29 11:33:24;;;;;;;9.50;4.55;;;15.60;77.30;;;;;;5010830;28;20128;-90
2022/04/29 11:35:52;;;;;;;7.95;3.40;;;15.60;78.00;;;;;;4990869;28;20049;-90
2022/04/29 11:38:18;;;;;;;8.35;3.55;;;15.60;77.40;;;;;;4990860;28;20050;-91
2022/04/29 11:40:44;;;;;;;9.85;3.40;;;15.60;76.90;;;;;;4984685;28;20042;-91
2022/04/29 11:43:10;;;;;;;8.55;3.20;;;15.60;76.80;;;;;;4971437;28;20042;-91
2022/04/29 11:45:38;;;;;;;19.48;4.72;;;15.60;76.00;;;;;;4970292;28;20054;-91
2022/04/29 11:48:06;;;;;;;10.35;3.45;;;15.60;74.60;;;;;;4955395;28;20047;-91
2022/04/29 11:50:33;;;;;;;6.65;2.90;;;15.60;74.10;;;;;;4955005;28;20126;-91
2022/04/29 11:53:10;;;;;;;9.32;2.92;;;15.60;75.10;;;;;;4970637;28;20038;-91
2022/04/29 11:55:37;;;;;;;12.43;3.40;;;15.60;75.20;;;;;;4955165;28;20424;-92
2022/04/29 11:58:04;;;;;;;8.35;3.30;;;15.60;75.10;;;;;;4971180;28;20050;-91
2022/04/29 12:00:34;;;;;;;9.77;2.85;;;15.70;75.20;;;;;;4955085;28;20524;-91
2022/04/29 12:03:04;;;;;;;8.50;3.28;;;15.80;75.20;;;;;;4971494;28;20082;-91
2022/04/29 12:05:31;;;;;;;10.20;3.20;;;15.90;76.00;;;;;;4974797;28;20049;-91
2022/04/29 12:08:01;;;;;;;7.18;2.85;;;16.00;76.10;;;;;;4959650;28;20047;-92
2022/04/29 12:10:29;;;;;;;7.88;3.10;;;16.10;76.60;;;;;;4958600;28;20047;-91
2022/04/29 12:13:03;;;;;;;9.93;3.28;;;16.20;74.70;;;;;;4975179;28;20049;-92
2022/04/29 12:15:35;;;;;;;7.72;3.30;;;16.20;73.10;;;;;;4975047;28;20038;-92
2022/04/29 12:18:08;;;;;;;7.90;3.40;;;16.20;73.10;;;;;;4975049;28;20429;-92
2022/04/29 12:20:35;;;;;;;9.52;3.40;;;16.20;73.00;;;;;;4974462;28;20043;-91
2022/04/29 12:23:22;;;;;;;8.32;3.03;;;16.20;72.80;;;;;;4974959;28;20378;-92
2022/04/29 12:25:48;;;;;;;7.97;3.10;;;16.20;70.80;;;;;;4974622;28;20050;-92
2022/04/29 12:28:22;;;;;;;8.05;3.20;;;16.20;71.10;;;;;;4958953;28;20043;-91
2022/04/29 12:36:57;;;;;;;9.27;4.05;;;16.10;70.30;;;;;;4974478;28;20047;-92
2022/04/29 12:39:43;;;;;;;8.68;3.47;;;16.10;72.10;;;;;;4958606;28;20046;-92
2022/04/29 12:42:10;;;;;;;8.90;3.92;;;16.00;70.30;;;;;;4958068;28;20121;-92
2022/04/29 12:47:49;;;;;;;9.10;3.60;;;16.00;70.10;;;;;;4974439;28;20524;-91
2022/04/29 12:50:28;;;;;;;8.90;4.10;;;15.90;70.70;;;;;;4974191;28;20043;-92
2022/04/29 12:53:00;;;;;;;8.98;3.58;;;15.80;70.90;;;;;;4958340;28;20070;-91
2022/04/29 12:55:27;;;;;;;9.77;3.70;;;15.80;71.20;;;;;;4958219;28;20093;-91
2022/04/29 12:58:05;;;;;;;8.02;3.97;;;15.80;71.50;;;;;;4957960;28;20409;-91
2022/04/29 13:00:31;;;;;;;11.38;4.65;;;15.80;72.10;;;;;;4974115;28;20081;-91
2022/04/29 13:03:01;;;;;;;11.20;4.18;;;15.70;71.60;;;;;;4974322;28;20070;-91
2022/04/29 13:05:28;;;;;;;8.65;4.30;;;15.70;72.10;;;;;;4957523;28;20055;-91
2022/04/29 13:07:54;;;;;;;14.30;4.65;;;15.70;72.70;;;;;;4957809;28;20070;-91
2022/04/29 13:10:20;;;;;;;9.95;4.20;;;15.70;73.00;;;;;;4989084;28;20050;-91
2022/04/29 13:12:45;;;;;;;10.05;4.68;;;15.70;73.40;;;;;;4977269;28;20047;-92
2022/04/29 13:15:11;;;;;;;11.13;4.70;;;15.70;73.70;;;;;;4992821;28;20037;-91
2022/04/29 13:17:37;;;;;;;11.50;4.50;;;15.80;73.60;;;;;;4993541;28;20077;-91
2022/04/29 13:20:04;;;;;;;9.52;4.43;;;15.80;72.80;;;;;;4992224;28;20463;-91
2022/04/29 13:22:30;;;;;;;10.75;4.50;;;15.80;72.20;;;;;;4993181;28;20088;-92
2022/04/29 13:24:58;;;;;;;10.18;4.70;;;15.80;71.00;;;;;;4993596;28;20377;-91